Time;durP1;ratioP1;P1;durP2;ratioP2;P2;SDS_P1;SDS_P2;PMS_P1;PMS_P2;Temp;Humidity;BMP_temperature;BMP_pressure;BME280_temperature;BME280_humidity;BME280_pressure;Samples;Min_cycle;Max_cycle;Signal;HPM_P1;HPM_P2
2020/12/10 10:28:04;;;;;;;17.88;6.80;;;7.80;99.90;;;;;;5107111;27;20754;-77
2020/12/10 10:43:57;;;;;;;16.23;7.30;;;8.10;99.90;;;;;;5062617;27;20363;-76
2020/12/10 10:46:23;;;;;;;20.90;7.53;;;8.20;99.90;;;;;;5034671;27;20052;-78
2020/12/10 10:48:48;;;;;;;17.42;6.97;;;8.30;99.90;;;;;;5040925;28;20045;-78
2020/12/10 10:51:21;;;;;;;23.55;7.13;;;8.40;99.90;;;;;;5035943;28;20403;-77
2020/12/10 10:53:46;;;;;;;13.68;6.53;;;8.50;99.90;;;;;;5030478;28;20492;-77
2020/12/10 10:56:12;;;;;;;16.42;6.32;;;8.60;99.90;;;;;;5030865;28;20044;-78
2020/12/10 10:58:38;;;;;;;13.38;6.85;;;8.70;99.90;;;;;;5032319;28;20032;-77
2020/12/10 11:01:04;;;;;;;14.52;6.28;;;8.80;99.90;;;;;;5029777;28;20042;-76
2020/12/10 11:03:29;;;;;;;12.70;6.03;;;8.90;99.90;;;;;;5031411;28;20431;-78
2020/12/10 11:05:55;;;;;;;13.85;6.25;;;9.00;99.90;;;;;;5066373;28;20033;-78
2020/12/10 11:08:21;;;;;;;13.15;6.13;;;9.00;99.90;;;;;;5028760;28;20030;-78
2020/12/10 11:10:47;;;;;;;21.38;7.10;;;9.10;99.90;;;;;;5023338;28;20037;-77
2020/12/10 11:13:13;;;;;;;15.63;6.65;;;9.20;99.90;;;;;;5053601;28;20455;-77
2020/12/10 11:16:00;;;;;;;21.27;6.90;;;9.30;99.90;;;;;;5027786;28;21745;-76
2020/12/10 11:18:29;;;;;;;13.13;6.72;;;9.30;99.90;;;;;;5068251;28;20026;-77
2020/12/10 11:20:56;;;;;;;17.13;6.55;;;9.20;99.90;;;;;;5030915;28;20049;-77
2020/12/10 11:23:21;;;;;;;12.98;6.13;;;9.30;99.90;;;;;;5028277;28;20034;-78
2020/12/10 11:25:47;;;;;;;17.80;6.07;;;9.30;99.90;;;;;;5034826;28;20080;-76
2020/12/10 11:28:13;;;;;;;15.07;6.53;;;9.30;99.90;;;;;;5032730;28;20025;-77
2020/12/10 11:30:39;;;;;;;10.35;5.78;;;9.30;99.90;;;;;;5029914;28;20507;-76
2020/12/10 11:33:04;;;;;;;16.58;5.72;;;9.30;99.90;;;;;;5030641;28;20137;-77
2020/12/10 11:35:30;;;;;;;8.27;5.15;;;9.40;99.90;;;;;;5028123;28;20073;-77
2020/12/10 11:37:56;;;;;;;10.18;5.43;;;9.40;99.90;;;;;;5058447;28;20480;-78
2020/12/10 11:40:26;;;;;;;12.43;5.72;;;9.30;99.90;;;;;;5032484;28;20055;-78
2020/12/10 11:42:55;;;;;;;13.48;6.43;;;9.40;99.90;;;;;;5032038;28;20437;-79
2020/12/10 11:45:21;;;;;;;15.43;6.18;;;9.30;99.90;;;;;;5048123;28;20061;-78
2020/12/10 11:47:48;;;;;;;11.18;5.60;;;9.40;99.90;;;;;;5033090;28;20033;-77
2020/12/10 11:50:20;;;;;;;16.92;6.30;;;9.30;99.90;;;;;;5029944;28;20055;-77
2020/12/10 11:52:49;;;;;;;15.05;5.97;;;9.30;99.90;;;;;;5034237;28;20128;-76
2020/12/10 11:55:39;;;;;;;12.05;6.07;;;9.30;99.90;;;;;;5018644;28;20038;-76
2020/12/10 11:58:08;;;;;;;12.57;6.38;;;9.40;99.90;;;;;;5016121;28;20042;-76
2020/12/10 12:00:35;;;;;;;12.90;6.00;;;9.50;99.90;;;;;;5051277;28;20046;-77
2020/12/10 12:03:01;;;;;;;12.20;5.82;;;9.50;99.90;;;;;;5016906;28;20451;-78
2020/12/10 12:05:27;;;;;;;10.98;6.03;;;9.50;99.90;;;;;;5012839;28;20373;-79
2020/12/10 12:07:54;;;;;;;11.77;5.93;;;9.50;99.90;;;;;;5014281;28;20508;-77
2020/12/10 12:10:21;;;;;;;10.45;5.47;;;9.50;99.90;;;;;;5014866;28;20116;-77
2020/12/10 12:12:46;;;;;;;12.25;5.57;;;9.50;99.90;;;;;;5008563;28;20025;-77
2020/12/10 12:15:20;;;;;;;10.57;5.15;;;9.40;99.90;;;;;;5011572;28;20124;-78
2020/12/10 12:17:54;;;;;;;12.05;5.55;;;9.40;99.90;;;;;;5021090;28;20137;-77
2020/12/10 12:20:34;;;;;;;12.30;5.60;;;9.40;99.90;;;;;;5042007;28;20050;-76
2020/12/10 12:23:23;;;;;;;12.48;5.35;;;9.50;99.90;;;;;;5015458;28;20032;-77
2020/12/10 12:26:04;;;;;;;12.90;5.57;;;9.50;99.90;;;;;;5019998;28;20117;-77
2020/12/10 12:28:40;;;;;;;16.10;5.68;;;9.50;99.90;;;;;;5042958;28;20055;-76
2020/12/10 12:31:05;;;;;;;14.25;5.38;;;9.50;99.90;;;;;;5023087;28;20049;-77
2020/12/10 12:33:31;;;;;;;16.70;5.68;;;9.50;99.90;;;;;;5013182;28;20026;-77
2020/12/10 12:35:58;;;;;;;10.10;5.60;;;9.50;99.90;;;;;;5010558;28;20065;-77
2020/12/10 12:38:44;;;;;;;16.55;5.93;;;9.60;99.90;;;;;;5050862;28;20065;-77
2020/12/10 12:41:12;;;;;;;12.50;5.40;;;9.60;99.90;;;;;;5014522;28;20045;-79
2020/12/10 12:43:39;;;;;;;29.48;6.22;;;9.60;99.90;;;;;;5048818;28;20185;-76
2020/12/10 12:46:07;;;;;;;14.73;5.63;;;9.70;99.90;;;;;;5009925;28;20066;-77
2020/12/10 12:48:33;;;;;;;10.13;5.50;;;9.70;99.90;;;;;;5007456;28;20022;-77
2020/12/10 12:50:58;;;;;;;13.48;5.78;;;9.70;99.90;;;;;;5015098;28;20496;-77
2020/12/10 12:53:24;;;;;;;13.50;5.50;;;9.70;99.90;;;;;;5012227;28;20091;-77
2020/12/10 12:55:54;;;;;;;16.80;5.80;;;9.70;99.90;;;;;;5009333;28;20038;-77
2020/12/10 12:58:19;;;;;;;9.63;5.03;;;9.80;99.90;;;;;;5009253;28;20029;-77
2020/12/10 13:00:45;;;;;;;15.05;5.30;;;9.80;99.90;;;;;;5014051;28;20124;-78
2020/12/10 13:03:16;;;;;;;13.50;5.30;;;9.90;99.90;;;;;;5011563;28;20061;-77
2020/12/10 13:05:42;;;;;;;17.33;5.57;;;10.00;99.90;;;;;;5012534;28;20465;-78
2020/12/10 13:08:12;;;;;;;10.38;4.93;;;10.10;99.90;;;;;;5008664;28;20492;-77
2020/12/10 13:10:44;;;;;;;11.25;5.40;;;10.30;99.90;;;;;;5012122;28;20033;-77
2020/12/10 13:13:18;;;;;;;12.35;5.35;;;10.40;99.90;;;;;;5003979;28;20497;-77
2020/12/10 13:15:43;;;;;;;12.05;5.03;;;10.40;99.90;;;;;;5012080;28;20431;-77
2020/12/10 13:18:12;;;;;;;16.02;5.65;;;10.40;99.90;;;;;;5010712;28;20038;-78
2020/12/10 13:20:41;;;;;;;15.63;5.80;;;10.40;99.90;;;;;;5048263;28;20072;-78
2020/12/10 13:23:07;;;;;;;11.43;5.40;;;10.40;99.90;;;;;;5032038;28;20069;-77
2020/12/10 13:25:39;;;;;;;15.20;5.75;;;10.40;99.90;;;;;;5015474;28;20437;-77
2020/12/10 13:28:04;;;;;;;11.70;6.18;;;10.30;99.90;;;;;;5016082;28;20026;-77
2020/12/10 13:30:30;;;;;;;13.73;5.53;;;10.40;99.90;;;;;;5015514;28;20053;-77
2020/12/10 13:32:55;;;;;;;13.85;5.95;;;10.30;99.90;;;;;;5006632;28;20467;-77
2020/12/10 13:35:24;;;;;;;12.45;6.00;;;10.30;99.90;;;;;;5043305;28;20029;-78
2020/12/10 13:37:51;;;;;;;11.32;6.18;;;10.20;99.90;;;;;;5010501;28;20046;-77
2020/12/10 13:40:36;;;;;;;12.63;6.10;;;10.20;99.90;;;;;;5045791;28;20524;-77
2020/12/10 13:43:27;;;;;;;12.02;6.60;;;10.10;99.90;;;;;;5010092;28;20420;-77
2020/12/10 13:46:13;;;;;;;13.77;6.17;;;10.10;99.90;;;;;;5009095;28;20537;-76
2020/12/10 13:48:39;;;;;;;14.80;6.03;;;10.10;99.90;;;;;;5009985;28;20467;-78
2020/12/10 13:51:05;;;;;;;11.15;5.60;;;10.20;99.90;;;;;;5007241;28;20102;-76
2020/12/10 13:53:31;;;;;;;11.10;5.75;;;10.10;99.90;;;;;;5010727;28;20108;-77
2020/12/10 13:55:56;;;;;;;14.18;6.32;;;10.20;99.90;;;;;;5014020;28;20042;-76
2020/12/10 13:58:22;;;;;;;16.85;5.88;;;10.20;99.90;;;;;;5011597;28;20029;-77
2020/12/10 14:00:48;;;;;;;13.32;5.57;;;10.20;99.90;;;;;;5027210;28;20045;-78
2020/12/10 14:03:36;;;;;;;10.95;5.35;;;10.20;99.90;;;;;;5016718;28;20026;-77
2020/12/10 14:06:02;;;;;;;10.75;5.75;;;10.20;99.90;;;;;;5016909;28;20044;-77
2020/12/10 14:08:29;;;;;;;10.63;5.68;;;10.20;99.90;;;;;;5046503;28;20065;-77
2020/12/10 14:10:55;;;;;;;43.10;8.25;;;10.20;99.90;;;;;;5016947;28;20029;-77
2020/12/10 14:13:20;;;;;;;18.83;6.40;;;10.20;99.90;;;;;;5013496;28;20503;-77
2020/12/10 14:16:06;;;;;;;12.48;5.68;;;10.20;99.90;;;;;;5017492;28;20448;-78
2020/12/10 14:18:32;;;;;;;8.80;4.88;;;10.20;99.90;;;;;;5010536;28;20042;-78
2020/12/10 14:21:02;;;;;;;10.15;4.53;;;10.20;99.90;;;;;;5017692;28;20591;-77
2020/12/10 14:23:28;;;;;;;17.30;5.22;;;10.20;99.90;;;;;;5023114;28;20041;-78
2020/12/10 14:26:14;;;;;;;15.77;5.57;;;10.20;99.90;;;;;;5014194;28;20057;-78
2020/12/10 14:29:23;;;;;;;10.88;4.53;;;10.10;99.90;;;;;;5027416;28;20462;-78
2020/12/10 14:31:48;;;;;;;12.88;4.75;;;10.10;99.90;;;;;;5027456;28;20041;-78
2020/12/10 14:34:15;;;;;;;16.55;5.47;;;10.10;99.90;;;;;;5025253;28;20087;-78
2020/12/10 14:36:48;;;;;;;11.73;4.57;;;10.10;99.90;;;;;;5023356;28;20049;-77
2020/12/10 14:39:22;;;;;;;10.40;4.85;;;10.00;99.90;;;;;;5012475;28;20025;-77
2020/12/10 14:41:49;;;;;;;12.98;4.88;;;10.00;99.90;;;;;;5027231;28;20052;-76
2020/12/10 14:44:16;;;;;;;15.20;4.85;;;9.90;99.90;;;;;;5030480;28;20511;-76
2020/12/10 14:46:41;;;;;;;13.85;4.82;;;10.00;99.90;;;;;;5021927;28;21309;-78
2020/12/10 14:49:19;;;;;;;7.18;4.30;;;10.00;99.90;;;;;;5028388;28;20033;-80
2020/12/10 14:51:45;;;;;;;9.80;3.83;;;9.90;99.90;;;;;;5011509;28;20041;-77
2020/12/10 14:56:56;;;;;;;7.70;4.30;;;9.90;99.90;;;;;;5025868;28;20731;-77
2020/12/10 14:59:44;;;;;;;13.35;4.88;;;9.90;99.90;;;;;;5048128;28;20031;-78
2020/12/10 15:02:11;;;;;;;6.82;3.90;;;9.90;99.90;;;;;;5030493;28;20105;-78
2020/12/10 15:04:40;;;;;;;9.60;3.90;;;9.90;99.90;;;;;;5029337;28;20029;-77
2020/12/10 15:07:06;;;;;;;8.05;3.60;;;9.80;99.90;;;;;;5031874;28;20083;-77
2020/12/10 15:09:36;;;;;;;10.25;4.03;;;9.80;99.90;;;;;;5031119;28;20084;-77
2020/12/10 15:12:02;;;;;;;12.32;4.50;;;9.80;99.90;;;;;;5029906;28;20030;-76
